createdAt,value
2023-02-21T00:00:10.288Z,29.77
2023-02-21T00:04:36.461Z,32.63
2023-02-21T00:09:01.004Z,30.77
2023-02-21T00:13:22.076Z,31.07
2023-02-21T00:17:43.152Z,30.10
2023-02-21T00:22:06.204Z,29.80
2023-02-21T00:26:28.019Z,30.00
2023-02-21T00:30:48.492Z,30.97
2023-02-21T00:35:09.805Z,30.90
2023-02-21T00:39:31.753Z,30.83
2023-02-21T00:43:54.622Z,31.97
2023-02-21T00:48:15.679Z,30.53
2023-02-21T00:52:36.442Z,30.23
2023-02-21T00:56:58.511Z,31.40
2023-02-21T01:01:21.014Z,31.47
2023-02-21T01:05:45.954Z,31.73
2023-02-21T01:10:06.848Z,30.37
2023-02-21T01:14:28.611Z,32.97
2023-02-21T01:18:49.497Z,32.43
2023-02-21T01:23:10.161Z,32.23
2023-02-21T01:27:31.305Z,31.97
2023-02-21T01:31:53.309Z,32.97
2023-02-21T01:36:14.235Z,33.33
2023-02-21T01:40:35.509Z,32.70
2023-02-21T01:44:58.194Z,32.90
2023-02-21T01:49:24.281Z,32.00
2023-02-21T01:53:46.540Z,30.53
2023-02-21T01:58:08.519Z,33.03
2023-02-21T02:02:36.546Z,33.83
2023-02-21T02:07:01.325Z,34.67
2023-02-21T02:11:34.740Z,32.63
2023-02-21T02:15:45.510Z,35.70
2023-02-21T02:20:26.119Z,33.37
2023-02-21T02:24:45.569Z,33.60
2023-02-21T02:29:05.390Z,33.70
2023-02-21T02:33:51.349Z,33.83
2023-02-21T02:38:03.413Z,36.60
2023-02-21T02:42:14.299Z,34.47
2023-02-21T02:46:23.377Z,36.50
2023-02-21T02:50:28.492Z,34.47
2023-02-21T02:54:32.814Z,34.13
2023-02-21T02:58:41.747Z,36.07
2023-02-21T03:03:02.257Z,36.17
2023-02-21T03:07:16.947Z,36.60
2023-02-21T03:11:25.243Z,36.40
2023-02-21T03:15:34.269Z,34.10
2023-02-21T03:19:41.137Z,34.67
2023-02-21T03:23:46.012Z,35.57
2023-02-21T03:27:52.817Z,36.47
2023-02-21T03:32:10.670Z,36.40
2023-02-21T03:36:15.327Z,36.40
2023-02-21T03:40:21.170Z,39.67
2023-02-21T03:44:28.449Z,36.10
2023-02-21T03:48:32.810Z,35.43
2023-02-21T03:52:58.773Z,35.97
2023-02-21T03:57:01.739Z,35.97
2023-02-21T04:01:07.262Z,35.37
2023-02-21T04:05:10.552Z,36.73
2023-02-21T04:09:14.213Z,35.30
2023-02-21T04:13:19.503Z,37.17
2023-02-21T04:17:25.235Z,35.27
2023-02-21T04:21:29.250Z,38.20
2023-02-21T04:25:35.075Z,37.50
2023-02-21T04:29:44.534Z,37.83
2023-02-21T04:33:51.596Z,38.17
2023-02-21T04:38:01.217Z,37.90
2023-02-21T04:42:04.235Z,37.30
2023-02-21T04:46:10.354Z,37.90
2023-02-21T04:50:14.869Z,36.70
2023-02-21T04:54:17.849Z,36.80
2023-02-21T04:58:20.811Z,37.70
2023-02-21T05:02:23.788Z,36.37
2023-02-21T05:06:30.874Z,39.27
2023-02-21T05:10:44.924Z,37.17
2023-02-21T05:14:48.460Z,39.47
2023-02-21T05:18:51.447Z,44.33
2023-02-21T05:23:02.071Z,42.00
2023-02-21T05:27:11.400Z,43.97
2023-02-21T05:31:14.611Z,45.10
2023-02-21T05:35:18.742Z,43.13
2023-02-21T05:39:23.876Z,41.17
2023-02-21T05:43:29.027Z,43.33
2023-02-21T05:47:34.890Z,43.77
2023-02-21T05:51:39.653Z,43.13
2023-02-21T05:55:44.108Z,38.97
2023-02-21T05:59:48.171Z,39.33
2023-02-21T06:03:51.187Z,39.53
2023-02-21T06:07:54.429Z,35.70
2023-02-21T06:11:59.775Z,42.93
2023-02-21T06:16:02.677Z,40.53
2023-02-21T06:20:07.416Z,41.17
2023-02-21T06:24:11.979Z,41.70
2023-02-21T06:28:16.396Z,40.00
2023-02-21T06:32:19.560Z,45.83
2023-02-21T06:36:25.854Z,43.63
2023-02-21T06:40:28.869Z,44.10
2023-02-21T06:44:34.333Z,40.17
2023-02-21T06:48:37.956Z,43.13
2023-02-21T06:52:40.972Z,48.30
2023-02-21T06:56:44.483Z,40.10
2023-02-21T07:00:48.940Z,49.10
2023-02-21T07:04:52.086Z,56.50
2023-02-21T07:08:55.231Z,52.57
2023-02-21T07:12:58.395Z,50.23
2023-02-21T07:17:02.721Z,45.57
2023-02-21T07:21:06.125Z,46.00
2023-02-21T07:25:09.837Z,46.13
2023-02-21T07:29:12.865Z,51.87
2023-02-21T07:33:18.086Z,53.83
2023-02-21T07:37:21.257Z,61.77
2023-02-21T07:41:24.249Z,63.47
2023-02-21T07:45:27.553Z,64.93
2023-02-21T07:49:32.282Z,62.80
2023-02-21T07:53:35.413Z,60.87
2023-02-21T07:57:38.423Z,78.40
2023-02-21T08:01:41.938Z,60.67
2023-02-21T08:05:46.985Z,58.97
2023-02-21T08:09:50.394Z,51.17
2023-02-21T08:13:53.476Z,55.33
2023-02-21T08:17:56.421Z,55.30
2023-02-21T08:22:00.777Z,60.53
2023-02-21T08:26:04.022Z,52.63
2023-02-21T08:30:08.111Z,58.23
2023-02-21T08:34:11.475Z,53.90
2023-02-21T08:38:15.887Z,50.10
2023-02-21T08:42:19.666Z,54.00
2023-02-21T08:46:22.652Z,56.30
2023-02-21T08:50:27.907Z,52.13
2023-02-21T08:54:32.478Z,100.07
2023-02-21T08:58:37.862Z,51.10
2023-02-21T09:02:41.421Z,44.53
2023-02-21T09:06:44.350Z,39.87
2023-02-21T09:10:50.304Z,45.90
2023-02-21T09:14:53.455Z,47.53
2023-02-21T09:18:59.068Z,44.50
2023-02-21T09:23:02.179Z,53.63
2023-02-21T09:27:07.112Z,47.63
2023-02-21T09:31:11.258Z,48.73
2023-02-21T09:35:16.062Z,44.63
2023-02-21T09:39:19.793Z,53.20
2023-02-21T09:43:37.358Z,60.23
2023-02-21T09:47:41.506Z,41.00
2023-02-21T09:51:44.965Z,43.10
2023-02-21T09:55:51.311Z,40.10
2023-02-21T09:59:56.696Z,106.00
2023-02-21T10:04:15.091Z,43.37
2023-02-21T10:08:26.394Z,43.40
2023-02-21T10:12:32.857Z,39.43
2023-02-21T10:16:43.937Z,36.27
2023-02-21T10:20:52.415Z,40.13
2023-02-21T10:24:55.925Z,37.13
2023-02-21T10:29:00.159Z,39.17
2023-02-21T10:33:06.578Z,36.90
2023-02-21T10:37:25.311Z,34.63
2023-02-21T10:41:32.245Z,33.93
2023-02-21T10:45:40.515Z,34.33
2023-02-21T10:49:49.354Z,34.50
2023-02-21T10:54:21.613Z,34.00
2023-02-21T10:58:28.837Z,30.80
2023-02-21T11:02:35.186Z,29.47
2023-02-21T11:06:41.303Z,30.87
2023-02-21T11:10:46.010Z,29.13
2023-02-21T11:15:06.960Z,30.90
2023-02-21T11:19:15.233Z,28.80
2023-02-21T11:23:28.166Z,26.93
2023-02-21T11:27:35.138Z,26.00
2023-02-21T11:31:38.566Z,28.27
2023-02-21T11:35:47.331Z,25.73
2023-02-21T11:39:53.140Z,25.13
2023-02-21T11:43:57.614Z,26.97
2023-02-21T11:48:06.363Z,27.60
2023-02-21T11:52:14.988Z,24.43
2023-02-21T11:56:34.287Z,22.43
2023-02-21T12:01:01.726Z,20.50
2023-02-21T12:05:20.012Z,22.67
2023-02-21T12:09:30.744Z,21.30
2023-02-21T12:13:43.621Z,22.17
2023-02-21T12:18:13.026Z,19.87
2023-02-21T12:22:28.462Z,20.60
2023-02-21T12:26:45.795Z,21.80
2023-02-21T12:31:07.045Z,20.27
2023-02-21T12:35:42.446Z,19.67
2023-02-21T12:40:08.042Z,18.37
2023-02-21T12:44:15.533Z,16.70
2023-02-21T12:48:28.373Z,16.53
2023-02-21T12:52:37.519Z,14.73
2023-02-21T12:56:46.183Z,13.37
2023-02-21T13:00:56.072Z,11.97
2023-02-21T13:05:11.714Z,12.20
2023-02-21T13:09:23.017Z,12.13
2023-02-21T13:13:29.697Z,12.13
2023-02-21T13:17:33.580Z,13.27
2023-02-21T13:22:00.409Z,11.97
2023-02-21T13:26:29.311Z,12.33
2023-02-21T13:30:40.750Z,12.10
2023-02-21T13:34:48.032Z,12.57
2023-02-21T13:39:05.558Z,11.43
2023-02-21T13:43:14.695Z,11.67
2023-02-21T13:47:20.292Z,16.87
2023-02-21T13:51:47.848Z,16.57
2023-02-21T13:56:27.260Z,13.70
2023-02-21T14:00:51.438Z,12.60
2023-02-21T14:05:05.868Z,10.20
2023-02-21T14:09:15.884Z,9.57
2023-02-21T14:13:25.649Z,12.83
2023-02-21T14:17:30.670Z,13.80
2023-02-21T14:21:37.098Z,11.93
2023-02-21T14:25:59.681Z,12.20
2023-02-21T14:30:44.683Z,11.67
2023-02-21T14:35:25.960Z,11.73
2023-02-21T14:39:36.598Z,11.53
2023-02-21T14:43:56.236Z,10.93
2023-02-21T14:48:19.840Z,11.53
2023-02-21T14:53:04.810Z,12.23
2023-02-21T14:57:34.862Z,10.60
2023-02-21T15:01:57.328Z,11.97
2023-02-21T15:06:07.290Z,12.53
2023-02-21T15:10:18.290Z,11.70
2023-02-21T15:14:26.236Z,13.83
2023-02-21T15:18:31.244Z,16.83
2023-02-21T15:22:34.165Z,14.80
2023-02-21T15:26:38.584Z,13.13
2023-02-21T15:30:42.987Z,13.67
2023-02-21T15:34:48.479Z,11.37
2023-02-21T15:38:54.912Z,13.57
2023-02-21T15:42:59.258Z,13.97
2023-02-21T15:47:05.975Z,16.33
2023-02-21T15:51:11.829Z,15.30
2023-02-21T15:55:17.529Z,13.93
2023-02-21T15:59:27.626Z,14.93
2023-02-21T16:03:35.928Z,14.60
2023-02-21T16:07:41.148Z,16.40
2023-02-21T16:11:47.616Z,15.20
2023-02-21T16:15:52.726Z,15.37
2023-02-21T16:19:59.790Z,18.57
2023-02-21T16:24:16.829Z,14.80
2023-02-21T16:28:19.914Z,15.10
2023-02-21T16:32:25.494Z,22.40
2023-02-21T16:36:35.079Z,35.50
2023-02-21T16:40:38.064Z,22.63
2023-02-21T16:44:43.816Z,18.67
2023-02-21T16:48:48.200Z,18.07
2023-02-21T16:52:51.092Z,17.13
2023-02-21T16:56:55.934Z,16.53
2023-02-21T17:01:01.726Z,19.43
2023-02-21T17:05:17.750Z,21.47
2023-02-21T17:09:25.012Z,21.40
2023-02-21T17:13:39.089Z,22.67
2023-02-21T17:17:53.261Z,22.53
2023-02-21T17:22:00.292Z,21.60
2023-02-21T17:26:03.588Z,29.57
2023-02-21T17:30:08.305Z,25.33
2023-02-21T17:34:13.364Z,29.03
2023-02-21T17:38:18.200Z,23.77
2023-02-21T17:42:21.500Z,21.40
2023-02-21T17:46:25.017Z,24.93
2023-02-21T17:50:28.946Z,24.57
2023-02-21T17:54:35.123Z,21.73
2023-02-21T17:58:39.191Z,19.77
2023-02-21T18:02:52.586Z,19.50
2023-02-21T18:07:02.502Z,20.00
2023-02-21T18:11:14.668Z,20.37
2023-02-21T18:15:32.634Z,19.73
2023-02-21T18:19:36.889Z,17.13
2023-02-21T18:23:44.635Z,18.30
2023-02-21T18:27:51.253Z,18.87
2023-02-21T18:31:54.815Z,19.83
2023-02-21T18:35:59.636Z,18.40
2023-02-21T18:40:02.731Z,19.63
2023-02-21T18:44:08.505Z,18.47
2023-02-21T18:48:12.031Z,23.73
2023-02-21T18:52:17.796Z,22.73
2023-02-21T18:56:25.041Z,18.67
2023-02-21T19:00:33.884Z,16.40
2023-02-21T19:04:37.200Z,19.27
2023-02-21T19:08:40.295Z,18.13
2023-02-21T19:12:43.800Z,19.67
2023-02-21T19:16:48.180Z,21.27
2023-02-21T19:20:51.004Z,18.83
2023-02-21T19:24:54.137Z,18.70
2023-02-21T19:28:57.001Z,17.93
2023-02-21T19:33:02.467Z,18.80
2023-02-21T19:37:05.730Z,21.53
2023-02-21T19:41:09.557Z,21.87
2023-02-21T19:45:12.654Z,22.30
2023-02-21T19:49:18.447Z,23.47
2023-02-21T19:53:23.622Z,23.07
2023-02-21T19:57:26.442Z,22.20
2023-02-21T20:01:30.458Z,19.93
2023-02-21T20:05:35.605Z,22.37
2023-02-21T20:09:38.735Z,21.50
2023-02-21T20:13:42.082Z,21.20
2023-02-21T20:17:46.312Z,22.47
2023-02-21T20:21:51.833Z,19.47
2023-02-21T20:25:59.629Z,22.93
2023-02-21T20:30:05.365Z,19.93
2023-02-21T20:34:09.128Z,22.97
2023-02-21T20:38:16.099Z,27.17
2023-02-21T20:42:36.115Z,24.27
2023-02-21T20:46:54.625Z,22.47
2023-02-21T20:51:06.955Z,23.40
2023-02-21T20:55:19.431Z,21.07
2023-02-21T20:59:36.766Z,21.83
2023-02-21T21:03:50.531Z,23.83
2023-02-21T21:07:59.338Z,23.00
2023-02-21T21:12:07.305Z,23.00
2023-02-21T21:16:10.898Z,22.13
2023-02-21T21:20:17.615Z,22.60
2023-02-21T21:24:21.978Z,25.53
2023-02-21T21:28:31.665Z,25.23
2023-02-21T21:32:50.410Z,23.07
2023-02-21T21:37:09.797Z,20.93
2023-02-21T21:41:34.290Z,24.57
2023-02-21T21:45:48.042Z,26.43
2023-02-21T21:49:56.718Z,25.60
2023-02-21T21:53:59.753Z,23.73
2023-02-21T21:58:02.750Z,24.27
2023-02-21T22:02:14.071Z,22.60
2023-02-21T22:06:16.980Z,23.27
2023-02-21T22:10:20.527Z,22.57
2023-02-21T22:14:23.653Z,22.50
2023-02-21T22:18:30.676Z,23.30
2023-02-21T22:22:33.866Z,22.23
2023-02-21T22:26:44.705Z,21.80
2023-02-21T22:31:03.418Z,22.63
2023-02-21T22:35:21.275Z,24.47
2023-02-21T22:39:34.127Z,22.30
2023-02-21T22:43:39.085Z,23.43
2023-02-21T22:47:47.965Z,22.77
2023-02-21T22:51:52.155Z,24.80
2023-02-21T22:55:56.396Z,41.70
2023-02-21T23:00:00.225Z,25.27
2023-02-21T23:04:15.947Z,23.63
2023-02-21T23:08:23.113Z,22.87
2023-02-21T23:12:26.356Z,29.73
2023-02-21T23:16:29.714Z,28.67
2023-02-21T23:20:34.173Z,25.13
2023-02-21T23:24:46.852Z,30.33
2023-02-21T23:28:58.264Z,26.97
2023-02-21T23:33:01.255Z,24.00
2023-02-21T23:37:07.149Z,25.73
2023-02-21T23:41:17.220Z,26.20
2023-02-21T23:45:22.351Z,25.87
2023-02-21T23:49:26.125Z,24.50
2023-02-21T23:53:31.776Z,23.87
2023-02-21T23:57:35.919Z,27.80
